Time;durP1;ratioP1;P1;durP2;ratioP2;P2;SDS_P1;SDS_P2;PMS_P1;PMS_P2;Temp;Humidity;BMP_temperature;BMP_pressure;BME280_temperature;BME280_humidity;BME280_pressure;Samples;Min_cycle;Max_cycle;Signal;HPM_P1;HPM_P2
2023/09/25 00:02:01;;;;;;;;;;;;;;;13.04;74.10;102366.41;4112533;28;20028;-71
2023/09/25 00:04:04;;;;;;;;;;;;;;;13.02;74.22;102369.28;4113100;28;20026;-72
2023/09/25 00:06:06;;;;;;;;;;;;;;;12.99;74.32;102361.44;4113605;28;20028;-72
2023/09/25 00:08:08;;;;;;;;;;;;;;;12.99;74.75;102369.59;4113628;28;20005;-72
2023/09/25 00:10:10;;;;;;;;;;;;;;;12.97;74.64;102374.31;4111205;28;19972;-72
2023/09/25 00:12:12;;;;;;;;;;;;;;;12.97;74.77;102368.91;4113173;28;20021;-71
2023/09/25 00:14:14;;;;;;;;;;;;;;;12.95;74.69;102366.34;4112806;28;20381;-71
2023/09/25 00:16:16;;;;;;;;;;;;;;;12.95;74.22;102366.34;4113204;28;20020;-72
2023/09/25 00:18:18;;;;;;;;;;;;;;;12.96;74.53;102361.75;4111913;28;20029;-72
2023/09/25 00:20:24;;;;;;;;;;;;;;;12.96;74.41;102364.47;4113205;28;20016;-72
2023/09/25 00:22:26;;;;;;;;;;;;;;;12.92;74.77;102360.38;4112629;28;20492;-71
2023/09/25 00:24:28;;;;;;;;;;;;;;;12.92;74.71;102363.09;4113447;28;20014;-71
2023/09/25 00:26:30;;;;;;;;;;;;;;;12.92;74.57;102369.34;4112491;28;20041;-71
2023/09/25 00:28:32;;;;;;;;;;;;;;;12.90;74.25;102365.94;4114104;28;20497;-72
2023/09/25 00:30:34;;;;;;;;;;;;;;;12.89;74.33;102366.94;4111559;28;19926;-71
2023/09/25 00:32:37;;;;;;;;;;;;;;;12.86;74.49;102356.41;4112511;28;20025;-72
2023/09/25 00:34:39;;;;;;;;;;;;;;;12.84;74.19;102361.13;4104534;28;20409;-73
2023/09/25 00:36:40;;;;;;;;;;;;;;;12.82;74.34;102365.88;4112248;28;20032;-72
2023/09/25 00:38:42;;;;;;;;;;;;;;;12.79;74.59;102368.88;4111895;28;19985;-72
2023/09/25 00:40:43;;;;;;;;;;;;;;;12.76;74.79;102366.47;4111288;28;20945;-72
2023/09/25 00:42:46;;;;;;;;;;;;;;;12.74;74.56;102371.16;4094885;28;20029;-72
2023/09/25 00:44:48;;;;;;;;;;;;;;;12.74;74.76;102372.03;4111885;28;20029;-72
2023/09/25 00:46:50;;;;;;;;;;;;;;;12.73;74.74;102375.75;4111736;28;20020;-73
2023/09/25 00:48:54;;;;;;;;;;;;;;;12.72;74.81;102370.47;4113361;28;20020;-73
2023/09/25 00:50:56;;;;;;;;;;;;;;;12.73;74.69;102372.19;4111321;28;20375;-72
2023/09/25 00:53:01;;;;;;;;;;;;;;;12.68;74.51;102369.06;4113113;28;20022;-72
2023/09/25 00:55:04;;;;;;;;;;;;;;;12.66;74.77;102368.38;4113414;28;20016;-73
2023/09/25 00:57:06;;;;;;;;;;;;;;;12.66;74.54;102365.66;4104600;28;20045;-72
2023/09/25 00:59:09;;;;;;;;;;;;;;;12.62;74.95;102363.25;4111183;28;20373;-72
2023/09/25 01:01:11;;;;;;;;;;;;;;;12.59;74.72;102358.13;4109963;28;20037;-72
2023/09/25 01:03:13;;;;;;;;;;;;;;;12.57;75.06;102360.16;4111252;28;20012;-72
2023/09/25 01:05:17;;;;;;;;;;;;;;;12.55;75.10;102362.13;4111022;28;20025;-72
2023/09/25 01:07:19;;;;;;;;;;;;;;;12.50;75.13;102356.31;4119789;28;20510;-72
2023/09/25 01:09:21;;;;;;;;;;;;;;;12.49;75.19;102349.22;4113012;28;20102;-72
2023/09/25 01:11:25;;;;;;;;;;;;;;;12.49;75.04;102351.03;4111621;28;19956;-71
2023/09/25 01:13:28;;;;;;;;;;;;;;;12.50;75.31;102350.06;4111095;28;21369;-71
2023/09/25 01:15:29;;;;;;;;;;;;;;;12.49;75.18;102343.78;4113509;28;20037;-72
2023/09/25 01:17:31;;;;;;;;;;;;;;;12.45;75.13;102342.38;4120585;28;20017;-72
2023/09/25 01:19:33;;;;;;;;;;;;;;;12.41;75.18;102341.84;4104196;28;20472;-73
2023/09/25 01:21:37;;;;;;;;;;;;;;;12.40;75.19;102345.53;4127348;28;20016;-72
2023/09/25 01:23:40;;;;;;;;;;;;;;;12.37;75.49;102342.28;4113052;28;20021;-71
2023/09/25 01:25:41;;;;;;;;;;;;;;;12.36;75.60;102338.69;4113115;28;20018;-72
2023/09/25 01:27:44;;;;;;;;;;;;;;;12.37;75.31;102339.56;4112655;28;19926;-72
2023/09/25 01:29:46;;;;;;;;;;;;;;;12.34;74.99;102346.13;4112760;28;20487;-71
2023/09/25 01:31:48;;;;;;;;;;;;;;;12.35;75.26;102337.00;4112599;28;19930;-73
2023/09/25 01:33:50;;;;;;;;;;;;;;;12.37;75.58;102334.16;4113914;28;20480;-72
2023/09/25 01:35:52;;;;;;;;;;;;;;;12.39;75.17;102337.56;4115832;28;20013;-71
2023/09/25 01:37:55;;;;;;;;;;;;;;;12.38;75.49;102336.72;4116149;28;20024;-71
2023/09/25 01:39:59;;;;;;;;;;;;;;;12.38;75.36;102339.41;4113812;28;20026;-72
2023/09/25 01:42:01;;;;;;;;;;;;;;;12.34;75.47;102335.28;4113138;28;20020;-72
2023/09/25 01:44:03;;;;;;;;;;;;;;;12.34;75.84;102339.88;4115488;28;20385;-71
2023/09/25 01:46:05;;;;;;;;;;;;;;;12.32;75.98;102344.56;4114440;28;20069;-71
2023/09/25 01:48:07;;;;;;;;;;;;;;;12.31;76.35;102335.59;4115776;28;20013;-72
2023/09/25 01:50:11;;;;;;;;;;;;;;;12.32;76.37;102336.44;4115218;28;20029;-72
2023/09/25 01:52:14;;;;;;;;;;;;;;;12.31;76.09;102335.59;4115190;28;19973;-71
2023/09/25 01:54:16;;;;;;;;;;;;;;;12.29;76.09;102329.47;4106990;28;20038;-73
2023/09/25 01:56:19;;;;;;;;;;;;;;;12.31;76.36;102323.91;4130255;28;20053;-72
2023/09/25 01:58:20;;;;;;;;;;;;;;;12.30;76.25;102325.75;4113776;28;20017;-71
2023/09/25 02:00:22;;;;;;;;;;;;;;;12.29;76.46;102321.34;4113053;28;20046;-70
2023/09/25 02:02:23;;;;;;;;;;;;;;;12.28;76.70;102318.78;4115053;28;20029;-70
2023/09/25 02:04:25;;;;;;;;;;;;;;;12.27;76.80;102328.75;4115362;28;20230;-71
2023/09/25 02:06:27;;;;;;;;;;;;;;;12.28;76.54;102314.22;4115768;28;20025;-70
2023/09/25 02:08:29;;;;;;;;;;;;;;;12.31;76.44;102323.91;4115442;28;20353;-71
2023/09/25 02:10:31;;;;;;;;;;;;;;;12.31;76.42;102332.03;4114783;28;20028;-70
2023/09/25 02:12:36;;;;;;;;;;;;;;;12.31;76.26;102332.88;4113109;28;19926;-70
2023/09/25 02:14:38;;;;;;;;;;;;;;;12.32;76.51;102339.13;4115510;28;20387;-71
2023/09/25 02:16:41;;;;;;;;;;;;;;;12.29;76.38;102332.19;4106823;28;20563;-70
2023/09/25 02:18:43;;;;;;;;;;;;;;;12.27;76.61;102326.03;4115393;28;19969;-72
2023/09/25 02:20:47;;;;;;;;;;;;;;;12.28;76.55;102326.91;4113568;28;20052;-71
2023/09/25 02:22:51;;;;;;;;;;;;;;;12.26;76.58;102325.19;4112987;28;20033;-71
2023/09/25 02:24:53;;;;;;;;;;;;;;;12.28;76.39;102327.75;4114225;28;20581;-71
2023/09/25 02:26:55;;;;;;;;;;;;;;;12.26;76.60;102330.63;4115319;28;20028;-72
2023/09/25 02:28:59;;;;;;;;;;;;;;;12.27;76.43;102331.47;4114600;28;20021;-72
2023/09/25 02:31:00;;;;;;;;;;;;;;;12.27;76.36;102328.75;4114784;28;20022;-73
2023/09/25 02:33:02;;;;;;;;;;;;;;;12.25;76.53;102322.63;4113862;28;20372;-72
2023/09/25 02:35:04;;;;;;;;;;;;;;;12.24;76.52;102321.78;4114734;28;20029;-71
2023/09/25 02:37:06;;;;;;;;;;;;;;;12.25;76.29;102315.34;4113592;28;20029;-72
2023/09/25 02:39:09;;;;;;;;;;;;;;;12.25;76.26;102319.94;4114842;28;20024;-72
2023/09/25 02:41:11;;;;;;;;;;;;;;;12.25;76.26;102317.22;4113966;28;20452;-72
2023/09/25 02:43:14;;;;;;;;;;;;;;;12.20;76.03;102317.66;4112417;28;20013;-70
2023/09/25 02:45:17;;;;;;;;;;;;;;;12.18;76.02;102319.69;4114119;28;20028;-72
2023/09/25 02:47:19;;;;;;;;;;;;;;;12.15;76.32;102313.72;4113773;28;20025;-72
2023/09/25 02:49:21;;;;;;;;;;;;;;;12.11;76.37;102320.44;4114275;28;20061;-72
2023/09/25 02:51:23;;;;;;;;;;;;;;;12.08;76.21;102319.72;4096601;28;20385;-73
2023/09/25 02:53:26;;;;;;;;;;;;;;;12.07;76.58;102328.00;4129488;28;19954;-71
2023/09/25 02:55:27;;;;;;;;;;;;;;;12.06;76.58;102320.88;4114638;28;20036;-71
2023/09/25 02:57:29;;;;;;;;;;;;;;;12.04;76.74;102329.13;4114588;28;20053;-71
2023/09/25 02:59:31;;;;;;;;;;;;;;;12.05;76.61;102329.97;4114300;28;20037;-70
2023/09/25 03:01:35;;;;;;;;;;;;;;;12.05;76.54;102329.97;4114213;28;20033;-72
2023/09/25 03:03:37;;;;;;;;;;;;;;;12.06;76.40;102331.69;4113696;28;20029;-72
2023/09/25 03:05:39;;;;;;;;;;;;;;;12.07;76.32;102336.13;4112992;28;20468;-71
2023/09/25 03:07:41;;;;;;;;;;;;;;;12.06;76.39;102337.13;4113821;28;20452;-73
2023/09/25 03:09:43;;;;;;;;;;;;;;;12.05;76.11;102336.28;4114172;28;20441;-71
2023/09/25 03:11:46;;;;;;;;;;;;;;;12.03;76.33;102329.28;4113795;28;20373;-72
2023/09/25 03:13:49;;;;;;;;;;;;;;;12.00;76.28;102333.13;4113277;28;19926;-73
2023/09/25 03:15:51;;;;;;;;;;;;;;;12.00;76.36;102332.28;4112865;28;20029;-71
2023/09/25 03:17:55;;;;;;;;;;;;;;;12.01;76.00;102334.00;4114178;28;20009;-71
2023/09/25 03:19:58;;;;;;;;;;;;;;;11.99;76.30;102326.03;4114028;28;20053;-71
2023/09/25 03:22:00;;;;;;;;;;;;;;;11.98;75.94;102331.59;4112462;28;20093;-72
2023/09/25 03:24:02;;;;;;;;;;;;;;;11.94;76.12;102333.72;4114192;28;20020;-71
2023/09/25 03:26:04;;;;;;;;;;;;;;;11.91;76.16;102336.69;4114341;28;20029;-71
2023/09/25 03:28:07;;;;;;;;;;;;;;;11.89;76.50;102336.00;4121538;28;20029;-71
2023/09/25 03:30:10;;;;;;;;;;;;;;;11.91;76.47;102342.09;4127774;28;20016;-72
2023/09/25 03:32:13;;;;;;;;;;;;;;;11.93;76.62;102340.16;4119489;28;20017;-71
2023/09/25 03:34:16;;;;;;;;;;;;;;;11.95;76.24;102332.72;4114324;28;20149;-72
2023/09/25 03:36:18;;;;;;;;;;;;;;;11.96;76.22;102322.75;4120522;28;20017;-71
2023/09/25 03:38:20;;;;;;;;;;;;;;;11.92;75.95;102324.91;4113508;28;20021;-71
2023/09/25 03:40:22;;;;;;;;;;;;;;;11.90;76.61;102327.72;4113581;28;20020;-71
2023/09/25 03:42:24;;;;;;;;;;;;;;;11.93;76.42;102331.16;4112305;28;20025;-71
2023/09/25 03:44:27;;;;;;;;;;;;;;;11.92;76.16;102335.72;4112274;28;20021;-72
2023/09/25 03:46:30;;;;;;;;;;;;;;;11.89;76.36;102327.88;4111224;28;20072;-72
2023/09/25 03:48:32;;;;;;;;;;;;;;;11.88;76.55;102339.69;4113953;28;20020;-73
2023/09/25 03:50:35;;;;;;;;;;;;;;;11.85;76.61;102330.03;4112063;28;20029;-70
2023/09/25 03:52:37;;;;;;;;;;;;;;;11.85;76.98;102335.44;4113138;28;20024;-71
2023/09/25 03:54:39;;;;;;;;;;;;;;;11.85;76.84;102340.00;4113458;28;19926;-72
2023/09/25 03:56:42;;;;;;;;;;;;;;;11.83;76.58;102340.16;4113148;28;20444;-72
2023/09/25 03:58:44;;;;;;;;;;;;;;;11.82;76.79;102340.31;4113596;28;20017;-72
2023/09/25 04:00:46;;;;;;;;;;;;;;;11.82;76.80;102334.88;4112667;28;20037;-71
2023/09/25 04:02:48;;;;;;;;;;;;;;;11.81;76.95;102339.44;4112511;28;20025;-71
2023/09/25 04:04:49;;;;;;;;;;;;;;;11.81;76.64;102331.31;4112982;28;20032;-72
2023/09/25 04:06:53;;;;;;;;;;;;;;;11.82;76.96;102330.31;4103113;28;20017;-70
2023/09/25 04:08:55;;;;;;;;;;;;;;;11.83;76.70;102331.16;4113481;28;20020;-72
2023/09/25 04:10:57;;;;;;;;;;;;;;;11.83;76.79;102328.44;4112051;28;20373;-72
2023/09/25 04:12:59;;;;;;;;;;;;;;;11.83;76.86;102333.88;4112406;28;20033;-71
2023/09/25 04:15:01;;;;;;;;;;;;;;;11.83;76.84;102333.88;4112873;28;20379;-71
2023/09/25 04:17:03;;;;;;;;;;;;;;;11.80;76.47;102329.63;4113138;28;20430;-72
2023/09/25 04:19:05;;;;;;;;;;;;;;;11.75;76.79;102333.75;4113537;28;20029;-71
2023/09/25 04:21:07;;;;;;;;;;;;;;;11.72;76.85;102340.28;4113170;28;20029;-73
2023/09/25 04:23:10;;;;;;;;;;;;;;;11.70;77.07;102339.59;4113380;28;20050;-71
2023/09/25 04:25:18;;;;;;;;;;;;;;;11.70;77.38;102336.91;4113091;28;20009;-72
2023/09/25 04:27:20;;;;;;;;;;;;;;;11.69;77.36;102337.88;4112176;28;20037;-70
2023/09/25 04:29:22;;;;;;;;;;;;;;;11.70;77.19;102343.16;4113163;28;20052;-72
2023/09/25 04:31:24;;;;;;;;;;;;;;;11.67;77.05;102338.03;4112453;28;20025;-73
2023/09/25 04:33:26;;;;;;;;;;;;;;;11.67;77.29;102339.88;4113295;28;20437;-73
2023/09/25 04:35:32;;;;;;;;;;;;;;;11.66;77.21;102332.75;4111870;28;19958;-73
2023/09/25 04:37:36;;;;;;;;;;;;;;;11.65;77.00;102333.78;4111840;28;20021;-73
2023/09/25 04:39:40;;;;;;;;;;;;;;;11.63;77.28;102339.34;4112967;28;20367;-71
2023/09/25 04:41:43;;;;;;;;;;;;;;;11.62;77.03;102337.63;4111401;28;20057;-72
2023/09/25 04:43:44;;;;;;;;;;;;;;;11.61;77.07;102338.59;4112633;28;20483;-72
2023/09/25 04:45:46;;;;;;;;;;;;;;;11.59;77.33;102335.19;4113272;28;19927;-73
2023/09/25 04:47:51;;;;;;;;;;;;;;;11.59;77.41;102339.75;4112757;28;20016;-73
2023/09/25 04:49:53;;;;;;;;;;;;;;;11.58;77.50;102328.06;4111964;28;20125;-74
2023/09/25 04:51:55;;;;;;;;;;;;;;;11.58;77.35;102325.38;4111853;28;20025;-72
2023/09/25 04:53:57;;;;;;;;;;;;;;;11.60;77.62;102327.94;4112657;28;20311;-72
2023/09/25 04:56:01;;;;;;;;;;;;;;;11.61;77.31;102329.66;4111914;28;20026;-73
2023/09/25 04:58:03;;;;;;;;;;;;;;;11.60;77.06;102325.22;4111106;28;20017;-70
2023/09/25 05:00:13;;;;;;;;;;;;;;;11.58;77.11;102329.94;4111955;28;20021;-74
2023/09/25 05:02:15;;;;;;;;;;;;;;;11.58;77.23;102332.63;4112332;28;20452;-73
2023/09/25 05:04:17;;;;;;;;;;;;;;;11.59;77.33;102337.91;4112914;28;20028;-71
2023/09/25 05:06:19;;;;;;;;;;;;;;;11.61;77.24;102329.66;4112960;28;20024;-73
2023/09/25 05:08:20;;;;;;;;;;;;;;;11.61;77.24;102330.47;4114827;28;20025;-73
2023/09/25 05:10:23;;;;;;;;;;;;;;;11.64;77.33;102330.19;4110940;28;19926;-74
2023/09/25 05:12:26;;;;;;;;;;;;;;;11.63;76.88;102336.63;4114578;28;20462;-73
2023/09/25 05:14:29;;;;;;;;;;;;;;;11.60;77.16;102334.22;4116236;28;20016;-74
2023/09/25 05:16:32;;;;;;;;;;;;;;;11.58;77.24;102329.94;4115141;28;19937;-74
2023/09/25 05:18:35;;;;;;;;;;;;;;;11.60;77.39;102336.91;4116147;28;20048;-73
2023/09/25 05:20:37;;;;;;;;;;;;;;;11.60;77.22;102345.03;4115277;28;20052;-74
2023/09/25 05:22:38;;;;;;;;;;;;;;;11.60;77.21;102344.16;4114303;28;20472;-75
2023/09/25 05:24:40;;;;;;;;;;;;;;;11.60;77.41;102342.34;4113231;28;20017;-73
2023/09/25 05:26:42;;;;;;;;;;;;;;;11.60;77.28;102342.34;4115684;28;20448;-73
2023/09/25 05:28:46;;;;;;;;;;;;;;;11.59;77.34;102347.88;4115747;28;20013;-73
2023/09/25 05:30:52;;;;;;;;;;;;;;;11.56;77.59;102348.16;4114894;28;20029;-75
2023/09/25 05:32:53;;;;;;;;;;;;;;;11.54;77.41;102342.91;4115218;28;20404;-74
2023/09/25 05:34:55;;;;;;;;;;;;;;;11.53;77.65;102347.44;4116267;28;20363;-73
2023/09/25 05:36:57;;;;;;;;;;;;;;;11.55;77.74;102350.00;4115366;28;20381;-73
2023/09/25 05:38:59;;;;;;;;;;;;;;;11.55;77.89;102350.00;4114991;28;20116;-73
2023/09/25 05:41:02;;;;;;;;;;;;;;;11.57;77.71;102352.56;4114396;28;20345;-74
2023/09/25 05:43:04;;;;;;;;;;;;;;;11.59;77.68;102351.44;4113696;28;20045;-71
2023/09/25 05:45:07;;;;;;;;;;;;;;;11.61;77.85;102348.59;4115793;28;20371;-74
2023/09/25 05:47:09;;;;;;;;;;;;;;;11.63;77.49;102344.75;4115441;28;20022;-74
2023/09/25 05:49:11;;;;;;;;;;;;;;;11.67;77.76;102345.31;4115848;28;20037;-74
2023/09/25 05:51:13;;;;;;;;;;;;;;;11.71;77.63;102338.63;4115009;28;20041;-73
2023/09/25 05:53:15;;;;;;;;;;;;;;;11.72;77.63;102343.88;4115489;28;20025;-73
2023/09/25 05:55:17;;;;;;;;;;;;;;;11.76;77.40;102341.72;4115364;28;20362;-74
2023/09/25 05:57:19;;;;;;;;;;;;;;;11.80;77.36;102342.28;4115623;28;20387;-74
2023/09/25 05:59:21;;;;;;;;;;;;;;;11.83;77.56;102339.28;4115156;28;20020;-73
2023/09/25 06:01:24;;;;;;;;;;;;;;;11.88;77.28;102339.69;4113894;28;20046;-74
2023/09/25 06:03:26;;;;;;;;;;;;;;;11.92;77.56;102342.97;4114430;28;20021;-75
2023/09/25 06:05:28;;;;;;;;;;;;;;;11.94;77.30;102347.25;4115744;28;20029;-70
2023/09/25 06:07:30;;;;;;;;;;;;;;;11.99;77.46;102346.81;4115053;28;20024;-72
2023/09/25 06:09:32;;;;;;;;;;;;;;;12.01;77.18;102337.56;4113563;28;20009;-73
2023/09/25 06:11:36;;;;;;;;;;;;;;;12.05;77.54;102343.53;4114907;28;20013;-72
2023/09/25 06:13:39;;;;;;;;;;;;;;;12.09;77.28;102339.53;4114477;28;21018;-71
2023/09/25 06:15:43;;;;;;;;;;;;;;;12.11;77.32;102342.94;4114911;28;20024;-72
2023/09/25 06:17:47;;;;;;;;;;;;;;;12.14;77.44;102337.22;4115034;28;19930;-72
2023/09/25 06:19:48;;;;;;;;;;;;;;;12.20;77.32;102342.03;4103731;28;20496;-73
2023/09/25 06:21:50;;;;;;;;;;;;;;;12.24;76.92;102332.63;4112008;28;20480;-74
2023/09/25 06:23:52;;;;;;;;;;;;;;;12.30;77.11;102344.72;4113876;28;20032;-74
2023/09/25 06:25:54;;;;;;;;;;;;;;;12.34;76.76;102346.13;4113862;28;20053;-74
2023/09/25 06:27:56;;;;;;;;;;;;;;;12.39;76.74;102349.22;4115028;28;20024;-74
2023/09/25 06:29:58;;;;;;;;;;;;;;;12.44;77.04;102355.09;4114840;28;20369;-74
2023/09/25 06:32:00;;;;;;;;;;;;;;;12.50;76.69;102356.31;4115100;28;20013;-74
2023/09/25 06:34:04;;;;;;;;;;;;;;;12.55;76.74;102359.41;4115105;28;20029;-74
2023/09/25 06:36:06;;;;;;;;;;;;;;;12.59;76.61;102363.53;4115178;28;20022;-74
2023/09/25 06:38:08;;;;;;;;;;;;;;;12.65;75.91;102353.09;4115219;28;19961;-74
2023/09/25 06:40:11;;;;;;;;;;;;;;;12.70;76.04;102353.53;4115309;28;20432;-75
2023/09/25 06:42:13;;;;;;;;;;;;;;;12.75;75.75;102343.91;4114887;28;20005;-73
2023/09/25 06:44:15;;;;;;;;;;;;;;;12.80;75.52;102343.44;4115079;28;20045;-74
2023/09/25 06:46:16;;;;;;;;;;;;;;;12.84;75.52;102339.44;4115335;28;20033;-74
2023/09/25 06:48:18;;;;;;;;;;;;;;;12.89;75.47;102339.81;4114801;28;19930;-72
2023/09/25 06:50:21;;;;;;;;;;;;;;;12.94;75.67;102337.50;4114654;28;20025;-72
2023/09/25 06:52:24;;;;;;;;;;;;;;;12.98;75.17;102333.47;4114985;28;20044;-74
2023/09/25 06:54:26;;;;;;;;;;;;;;;13.02;75.27;102331.31;4114972;28;20017;-73
2023/09/25 06:56:29;;;;;;;;;;;;;;;13.07;74.82;102331.72;4114963;28;20025;-75
2023/09/25 06:58:31;;;;;;;;;;;;;;;13.10;74.79;102331.41;4114268;28;19926;-73
2023/09/25 07:00:33;;;;;;;;;;;;;;;13.16;75.13;102330.78;4114843;28;20033;-75
2023/09/25 07:02:36;;;;;;;;;;;;;;;13.21;75.00;102335.72;4114502;28;20009;-75
2023/09/25 07:04:38;;;;;;;;;;;;;;;13.26;74.73;102325.28;4114791;28;20038;-71
2023/09/25 07:06:41;;;;;;;;;;;;;;;13.31;74.72;102322.09;4114639;28;20020;-72
2023/09/25 07:08:43;;;;;;;;;;;;;;;13.36;74.23;102322.50;4111297;28;20055;-73
2023/09/25 07:10:46;;;;;;;;;;;;;;;13.40;74.72;102318.47;4110044;28;19993;-72
2023/09/25 07:12:48;;;;;;;;;;;;;;;13.44;74.54;102319.84;4115674;28;19968;-72
2023/09/25 07:14:55;;;;;;;;;;;;;;;13.49;74.97;102312.09;4116804;28;20419;-69
2023/09/25 07:16:57;;;;;;;;;;;;;;;13.54;74.45;102317.03;4115781;28;19964;-72
2023/09/25 07:18:59;;;;;;;;;;;;;;;13.58;74.23;102318.44;4115693;28;19926;-71
2023/09/25 07:21:02;;;;;;;;;;;;;;;13.63;74.02;102315.25;4112939;28;19957;-72
2023/09/25 07:23:06;;;;;;;;;;;;;;;13.68;73.87;102324.63;4128127;28;20036;-72
2023/09/25 07:25:08;;;;;;;;;;;;;;;13.73;74.07;102326.00;4112653;28;20020;-73
2023/09/25 07:27:10;;;;;;;;;;;;;;;13.77;73.87;102325.53;4105932;28;20034;-73
2023/09/25 07:29:12;;;;;;;;;;;;;;;13.81;73.76;102326.91;4114362;28;20029;-74
2023/09/25 07:31:18;;;;;;;;;;;;;;;13.87;73.54;102330.84;4111540;28;20380;-72
2023/09/25 07:33:19;;;;;;;;;;;;;;;13.92;73.65;102325.78;4112639;28;20029;-72
2023/09/25 07:35:21;;;;;;;;;;;;;;;13.98;73.36;102337.88;4114007;28;19937;-75
2023/09/25 07:37:24;;;;;;;;;;;;;;;14.01;72.80;102335.69;4113299;28;20025;-74
2023/09/25 07:39:27;;;;;;;;;;;;;;;14.06;73.33;102338.78;4111350;28;19954;-73
2023/09/25 07:41:29;;;;;;;;;;;;;;;14.12;72.90;102331.00;4113489;28;20571;-72
2023/09/25 07:43:32;;;;;;;;;;;;;;;14.16;72.39;102333.22;4114135;28;20368;-73
2023/09/25 07:45:34;;;;;;;;;;;;;;;14.22;72.28;102338.00;4112263;28;20432;-72
2023/09/25 07:47:38;;;;;;;;;;;;;;;14.27;71.93;102332.09;4113950;28;20016;-73
2023/09/25 07:49:44;;;;;;;;;;;;;;;14.32;71.33;102328.88;4112886;28;20033;-71
2023/09/25 07:51:46;;;;;;;;;;;;;;;14.37;71.20;102334.69;4113028;28;20363;-72
2023/09/25 07:53:48;;;;;;;;;;;;;;;14.42;70.93;102329.63;4113460;28;20033;-73
2023/09/25 07:55:52;;;;;;;;;;;;;;;14.48;70.78;102330.81;4113725;28;20013;-73
2023/09/25 07:57:56;;;;;;;;;;;;;;;14.54;70.58;102335.59;4113227;28;20020;-73
2023/09/25 07:59:57;;;;;;;;;;;;;;;14.57;70.90;102325.22;4112688;28;19957;-72
2023/09/25 08:01:59;;;;;;;;;;;;;;;14.63;70.77;102323.78;4113027;28;19926;-71
2023/09/25 08:04:00;;;;;;;;;;;;;;;14.67;70.80;102319.72;4112448;28;20464;-71
2023/09/25 08:06:05;;;;;;;;;;;;;;;14.72;70.45;102317.34;4112232;28;19926;-71
2023/09/25 08:08:10;;;;;;;;;;;;;;;14.78;70.19;102319.41;4113254;28;20021;-71
2023/09/25 08:10:12;;;;;;;;;;;;;;;14.83;70.35;102327.06;4112374;28;20017;-72
2023/09/25 08:12:15;;;;;;;;;;;;;;;14.89;70.12;102329.13;4112306;28;19926;-71
2023/09/25 08:14:17;;;;;;;;;;;;;;;14.94;70.24;102325.91;4112647;28;20017;-70
2023/09/25 08:16:21;;;;;;;;;;;;;;;14.99;70.01;102328.94;4113159;28;20032;-71
2023/09/25 08:18:23;;;;;;;;;;;;;;;15.05;70.01;102320.13;4112657;28;20444;-70
2023/09/25 08:20:26;;;;;;;;;;;;;;;15.11;69.64;102324.06;4112750;28;20353;-71
2023/09/25 08:22:27;;;;;;;;;;;;;;;15.18;69.44;102322.34;4113122;28;20046;-71
2023/09/25 08:24:29;;;;;;;;;;;;;;;15.24;69.44;102323.53;4112581;28;20048;-71
2023/09/25 08:26:31;;;;;;;;;;;;;;;15.31;69.86;102321.81;4113140;28;20437;-71
2023/09/25 08:28:36;;;;;;;;;;;;;;;15.38;69.42;102320.13;4113432;28;20110;-71
2023/09/25 08:30:39;;;;;;;;;;;;;;;15.46;69.63;102320.13;4104102;28;20021;-71
2023/09/25 08:32:40;;;;;;;;;;;;;;;15.55;69.28;102322.84;4112592;28;20460;-72
2023/09/25 08:34:42;;;;;;;;;;;;;;;15.62;69.18;102319.25;4111533;28;20009;-71
2023/09/25 08:36:44;;;;;;;;;;;;;;;15.71;68.98;102322.84;4113016;28;20582;-72
2023/09/25 08:38:46;;;;;;;;;;;;;;;15.80;68.72;102324.56;4113078;28;20029;-72
2023/09/25 08:40:48;;;;;;;;;;;;;;;15.89;68.65;102321.81;4112135;28;19930;-70
2023/09/25 08:42:51;;;;;;;;;;;;;;;15.98;68.63;102334.41;4112159;28;20029;-70
2023/09/25 08:44:56;;;;;;;;;;;;;;;16.08;68.25;102329.63;4112962;28;20029;-71
2023/09/25 08:46:58;;;;;;;;;;;;;;;16.19;68.11;102325.63;4112496;28;20444;-71
2023/09/25 08:49:01;;;;;;;;;;;;;;;16.30;67.74;102330.72;4113057;28;20013;-71
2023/09/25 08:51:03;;;;;;;;;;;;;;;16.41;67.49;102326.78;4112505;28;20017;-71
2023/09/25 08:53:04;;;;;;;;;;;;;;;16.53;67.36;102329.94;4112694;28;20013;-71
2023/09/25 08:55:08;;;;;;;;;;;;;;;16.64;66.91;102325.97;4112993;28;20009;-71
2023/09/25 08:57:10;;;;;;;;;;;;;;;16.75;66.64;102318.25;4113342;28;20016;-73
2023/09/25 08:59:12;;;;;;;;;;;;;;;16.87;66.22;102323.31;4112699;28;20020;-72
2023/09/25 09:01:16;;;;;;;;;;;;;;;16.97;66.10;102318.44;4111683;28;19926;-72
2023/09/25 09:03:17;;;;;;;;;;;;;;;17.08;65.65;102325.38;4112315;28;20029;-73
2023/09/25 09:05:19;;;;;;;;;;;;;;;17.18;65.38;102311.47;4113451;28;20028;-74
2023/09/25 09:07:21;;;;;;;;;;;;;;;17.28;65.13;102303.91;4113095;28;20637;-71
2023/09/25 09:09:24;;;;;;;;;;;;;;;17.36;64.62;102309.28;4111898;28;20021;-72
2023/09/25 09:11:27;;;;;;;;;;;;;;;17.44;64.39;102305.63;4112781;28;20017;-71
2023/09/25 09:13:29;;;;;;;;;;;;;;;17.52;64.31;102301.97;4113212;28;20043;-72
2023/09/25 09:15:34;;;;;;;;;;;;;;;17.59;64.00;102301.06;4113182;28;20045;-71
2023/09/25 09:17:37;;;;;;;;;;;;;;;17.68;63.72;102306.44;4111365;28;20036;-72
2023/09/25 09:19:50;;;;;;;;;;;;;;;17.73;63.60;102313.03;4112470;28;20027;-71
2023/09/25 09:22:05;;;;;;;;;;;;;;;17.81;63.50;102309.38;4112485;28;19969;-71
2023/09/25 09:24:08;;;;;;;;;;;;;;;17.87;63.17;102311.38;4112105;28;20431;-71
2023/09/25 09:26:10;;;;;;;;;;;;;;;17.91;63.06;102309.97;4112684;28;20024;-72
2023/09/25 09:28:13;;;;;;;;;;;;;;;17.95;62.83;102297.63;4113011;28;20034;-72
2023/09/25 09:30:22;;;;;;;;;;;;;;;17.99;62.74;102301.69;4112098;28;20370;-71
2023/09/25 09:32:24;;;;;;;;;;;;;;;18.02;62.71;102300.47;4112211;28;20009;-71
2023/09/25 09:34:27;;;;;;;;;;;;;;;18.04;62.60;102303.00;4114495;28;20025;-72
2023/09/25 09:36:29;;;;;;;;;;;;;;;18.06;62.51;102290.00;4114125;28;20033;-71
2023/09/25 09:38:33;;;;;;;;;;;;;;;18.08;62.24;102293.41;4114215;28;20056;-71
2023/09/25 09:40:35;;;;;;;;;;;;;;;18.08;62.27;102294.22;4112246;28;20036;-71
2023/09/25 09:42:37;;;;;;;;;;;;;;;18.09;62.19;102286.91;4112406;28;19965;-71
2023/09/25 09:44:39;;;;;;;;;;;;;;;18.09;62.07;102286.91;4112519;28;20045;-71
2023/09/25 09:46:44;;;;;;;;;;;;;;;18.08;62.19;102277.84;4112294;28;20065;-70
2023/09/25 09:48:47;;;;;;;;;;;;;;;18.06;62.23;102279.91;4112544;28;20020;-71
2023/09/25 09:50:52;;;;;;;;;;;;;;;18.05;62.15;102280.94;4112326;28;20021;-74
2023/09/25 09:52:54;;;;;;;;;;;;;;;18.00;62.44;102270.56;4112182;28;20032;-71
2023/09/25 09:54:56;;;;;;;;;;;;;;;17.97;62.30;102265.47;4114052;28;20021;-72
2023/09/25 09:56:59;;;;;;;;;;;;;;;17.94;62.52;102267.75;4115856;28;20340;-72
2023/09/25 09:59:01;;;;;;;;;;;;;;;17.93;62.66;102269.66;4113843;28;20025;-72
2023/09/25 10:01:03;;;;;;;;;;;;;;;17.91;62.77;102266.22;4112162;28;20016;-71
2023/09/25 10:03:05;;;;;;;;;;;;;;;17.88;62.58;102255.69;4112800;28;20450;-72
2023/09/25 10:05:10;;;;;;;;;;;;;;;17.87;63.04;102269.50;4130389;28;20020;-74
2023/09/25 10:07:14;;;;;;;;;;;;;;;17.84;62.90;102255.19;4115330;28;20022;-70
2023/09/25 10:09:18;;;;;;;;;;;;;;;17.84;63.14;102270.75;4115309;28;20045;-69
2023/09/25 10:11:20;;;;;;;;;;;;;;;17.83;63.35;102264.41;4114610;28;20029;-70
2023/09/25 10:13:24;;;;;;;;;;;;;;;17.82;63.25;102267.34;4115106;28;20033;-72
2023/09/25 10:15:26;;;;;;;;;;;;;;;17.83;63.44;102269.88;4115849;28;20021;-72
2023/09/25 10:17:33;;;;;;;;;;;;;;;17.84;63.49;102259.81;4115217;28;20017;-73
2023/09/25 10:19:48;;;;;;;;;;;;;;;17.86;63.56;102270.56;4114764;28;20025;-71
2023/09/25 10:22:06;;;;;;;;;;;;;;;17.89;63.49;102257.38;4113910;28;20464;-72
2023/09/25 10:24:10;;;;;;;;;;;;;;;17.91;63.51;102255.31;4114716;28;20411;-72
2023/09/25 10:26:15;;;;;;;;;;;;;;;17.93;63.51;102255.97;4114363;28;20369;-72
2023/09/25 10:28:18;;;;;;;;;;;;;;;17.98;63.52;102260.88;4115497;28;20022;-73
2023/09/25 10:30:19;;;;;;;;;;;;;;;18.00;63.58;102254.16;4114649;28;20022;-73